sensor_id;sensor_type;location;lat;lon;timestamp;P1;durP1;ratioP1;P2;durP2;ratioP2
46723;SDS011;32463;48.298;11.620;2023-08-06T00:00:17;12.00;;;5.95;;
46723;SDS011;32463;48.298;11.620;2023-08-06T00:02:44;11.95;;;6.53;;
46723;SDS011;32463;48.298;11.620;2023-08-06T00:05:10;9.55;;;6.10;;
46723;SDS011;32463;48.298;11.620;2023-08-06T00:07:37;9.88;;;5.68;;
46723;SDS011;32463;48.298;11.620;2023-08-06T00:10:04;10.75;;;6.15;;
46723;SDS011;32463;48.298;11.620;2023-08-06T00:12:30;10.25;;;5.72;;
46723;SDS011;32463;48.298;11.620;2023-08-06T00:14:57;9.80;;;5.45;;
46723;SDS011;32463;48.298;11.620;2023-08-06T00:17:25;10.30;;;5.40;;
46723;SDS011;32463;48.298;11.620;2023-08-06T00:19:51;8.73;;;5.00;;
46723;SDS011;32463;48.298;11.620;2023-08-06T00:22:18;10.90;;;5.97;;
46723;SDS011;32463;48.298;11.620;2023-08-06T00:24:44;8.30;;;5.00;;
46723;SDS011;32463;48.298;11.620;2023-08-06T00:27:11;12.15;;;5.50;;
46723;SDS011;32463;48.298;11.620;2023-08-06T00:29:37;7.63;;;4.68;;
46723;SDS011;32463;48.298;11.620;2023-08-06T00:32:04;9.50;;;5.20;;
46723;SDS011;32463;48.298;11.620;2023-08-06T00:34:30;10.40;;;5.38;;
46723;SDS011;32463;48.298;11.620;2023-08-06T00:36:57;9.88;;;5.65;;
46723;SDS011;32463;48.298;11.620;2023-08-06T00:39:23;9.20;;;5.43;;
46723;SDS011;32463;48.298;11.620;2023-08-06T00:41:50;8.88;;;5.55;;
46723;SDS011;32463;48.298;11.620;2023-08-06T00:44:16;9.93;;;6.22;;
46723;SDS011;32463;48.298;11.620;2023-08-06T00:46:43;11.85;;;6.00;;
46723;SDS011;32463;48.298;11.620;2023-08-06T00:49:09;11.35;;;6.45;;
46723;SDS011;32463;48.298;11.620;2023-08-06T00:51:37;10.60;;;5.70;;
46723;SDS011;32463;48.298;11.620;2023-08-06T00:54:04;9.90;;;5.35;;
46723;SDS011;32463;48.298;11.620;2023-08-06T00:56:30;13.02;;;5.93;;
46723;SDS011;32463;48.298;11.620;2023-08-06T00:58:58;10.10;;;5.10;;
46723;SDS011;32463;48.298;11.620;2023-08-06T01:01:25;10.32;;;5.18;;
46723;SDS011;32463;48.298;11.620;2023-08-06T01:03:54;7.53;;;4.72;;
46723;SDS011;32463;48.298;11.620;2023-08-06T01:06:23;12.57;;;5.78;;
46723;SDS011;32463;48.298;11.620;2023-08-06T01:09:01;6.68;;;4.07;;
46723;SDS011;32463;48.298;11.620;2023-08-06T01:14:33;6.72;;;3.97;;
46723;SDS011;32463;48.298;11.620;2023-08-06T01:17:17;9.70;;;4.47;;
46723;SDS011;32463;48.298;11.620;2023-08-06T01:19:43;7.45;;;4.15;;
46723;SDS011;32463;48.298;11.620;2023-08-06T01:22:10;6.72;;;3.97;;
46723;SDS011;32463;48.298;11.620;2023-08-06T01:24:36;5.93;;;3.30;;
46723;SDS011;32463;48.298;11.620;2023-08-06T01:27:09;7.32;;;4.30;;
46723;SDS011;32463;48.298;11.620;2023-08-06T01:30:12;7.13;;;4.20;;
46723;SDS011;32463;48.298;11.620;2023-08-06T01:32:43;8.05;;;4.03;;
46723;SDS011;32463;48.298;11.620;2023-08-06T01:35:12;6.90;;;4.20;;
46723;SDS011;32463;48.298;11.620;2023-08-06T01:37:41;6.78;;;4.05;;
46723;SDS011;32463;48.298;11.620;2023-08-06T01:40:11;8.75;;;4.32;;
46723;SDS011;32463;48.298;11.620;2023-08-06T01:42:39;7.20;;;4.28;;
46723;SDS011;32463;48.298;11.620;2023-08-06T01:45:06;7.47;;;4.40;;
46723;SDS011;32463;48.298;11.620;2023-08-06T01:47:33;6.75;;;4.18;;
46723;SDS011;32463;48.298;11.620;2023-08-06T01:50:00;8.07;;;4.43;;
46723;SDS011;32463;48.298;11.620;2023-08-06T01:52:27;8.07;;;4.30;;
46723;SDS011;32463;48.298;11.620;2023-08-06T01:54:54;8.48;;;4.60;;
46723;SDS011;32463;48.298;11.620;2023-08-06T01:57:21;8.77;;;4.95;;
46723;SDS011;32463;48.298;11.620;2023-08-06T01:59:48;10.23;;;5.45;;
46723;SDS011;32463;48.298;11.620;2023-08-06T02:02:14;8.75;;;4.82;;
46723;SDS011;32463;48.298;11.620;2023-08-06T02:04:41;9.45;;;5.30;;
46723;SDS011;32463;48.298;11.620;2023-08-06T02:07:07;7.85;;;4.72;;
46723;SDS011;32463;48.298;11.620;2023-08-06T02:09:34;8.93;;;4.35;;
46723;SDS011;32463;48.298;11.620;2023-08-06T02:12:00;9.80;;;5.03;;
46723;SDS011;32463;48.298;11.620;2023-08-06T02:14:27;11.07;;;4.88;;
46723;SDS011;32463;48.298;11.620;2023-08-06T02:16:54;8.18;;;4.93;;
46723;SDS011;32463;48.298;11.620;2023-08-06T02:19:20;10.25;;;5.85;;
46723;SDS011;32463;48.298;11.620;2023-08-06T02:21:47;8.07;;;4.50;;
46723;SDS011;32463;48.298;11.620;2023-08-06T02:24:13;7.97;;;4.43;;
46723;SDS011;32463;48.298;11.620;2023-08-06T02:26:39;9.20;;;4.95;;
46723;SDS011;32463;48.298;11.620;2023-08-06T02:29:06;7.43;;;4.13;;
46723;SDS011;32463;48.298;11.620;2023-08-06T02:31:32;9.65;;;5.00;;
46723;SDS011;32463;48.298;11.620;2023-08-06T02:33:59;7.68;;;4.40;;
46723;SDS011;32463;48.298;11.620;2023-08-06T02:36:25;8.05;;;4.53;;
46723;SDS011;32463;48.298;11.620;2023-08-06T02:38:54;7.72;;;4.97;;
46723;SDS011;32463;48.298;11.620;2023-08-06T02:41:21;8.52;;;4.60;;
46723;SDS011;32463;48.298;11.620;2023-08-06T02:43:47;8.50;;;4.60;;
46723;SDS011;32463;48.298;11.620;2023-08-06T02:46:14;8.95;;;4.72;;
46723;SDS011;32463;48.298;11.620;2023-08-06T02:48:40;8.25;;;5.35;;
46723;SDS011;32463;48.298;11.620;2023-08-06T02:51:07;7.50;;;4.60;;
46723;SDS011;32463;48.298;11.620;2023-08-06T02:53:33;7.03;;;4.47;;
46723;SDS011;32463;48.298;11.620;2023-08-06T02:56:00;7.63;;;4.38;;
46723;SDS011;32463;48.298;11.620;2023-08-06T02:58:26;7.70;;;4.70;;
46723;SDS011;32463;48.298;11.620;2023-08-06T03:00:59;8.10;;;4.75;;
46723;SDS011;32463;48.298;11.620;2023-08-06T03:03:33;10.02;;;4.32;;
46723;SDS011;32463;48.298;11.620;2023-08-06T03:06:00;8.02;;;4.63;;
46723;SDS011;32463;48.298;11.620;2023-08-06T03:08:26;7.15;;;3.80;;
46723;SDS011;32463;48.298;11.620;2023-08-06T03:10:53;9.50;;;4.30;;
46723;SDS011;32463;48.298;11.620;2023-08-06T03:13:19;7.18;;;4.13;;
46723;SDS011;32463;48.298;11.620;2023-08-06T03:15:53;6.57;;;3.95;;
46723;SDS011;32463;48.298;11.620;2023-08-06T03:18:23;5.97;;;3.58;;
46723;SDS011;32463;48.298;11.620;2023-08-06T03:20:51;7.43;;;3.95;;
46723;SDS011;32463;48.298;11.620;2023-08-06T03:23:18;7.60;;;3.92;;
46723;SDS011;32463;48.298;11.620;2023-08-06T03:25:44;7.43;;;4.57;;
46723;SDS011;32463;48.298;11.620;2023-08-06T03:28:11;7.95;;;4.32;;
46723;SDS011;32463;48.298;11.620;2023-08-06T03:30:38;8.88;;;4.18;;
46723;SDS011;32463;48.298;11.620;2023-08-06T03:33:04;9.00;;;4.57;;
46723;SDS011;32463;48.298;11.620;2023-08-06T03:35:31;7.55;;;4.13;;
46723;SDS011;32463;48.298;11.620;2023-08-06T03:37:57;7.38;;;4.00;;
46723;SDS011;32463;48.298;11.620;2023-08-06T03:40:24;8.93;;;3.88;;
46723;SDS011;32463;48.298;11.620;2023-08-06T03:42:50;7.43;;;4.28;;
46723;SDS011;32463;48.298;11.620;2023-08-06T03:45:17;9.23;;;4.18;;
46723;SDS011;32463;48.298;11.620;2023-08-06T03:47:43;6.78;;;3.95;;
46723;SDS011;32463;48.298;11.620;2023-08-06T03:50:10;8.18;;;4.10;;
46723;SDS011;32463;48.298;11.620;2023-08-06T03:52:36;9.63;;;4.63;;
46723;SDS011;32463;48.298;11.620;2023-08-06T03:55:03;7.82;;;3.90;;
46723;SDS011;32463;48.298;11.620;2023-08-06T03:57:30;7.22;;;3.45;;
46723;SDS011;32463;48.298;11.620;2023-08-06T03:59:56;6.07;;;4.03;;
46723;SDS011;32463;48.298;11.620;2023-08-06T04:02:23;6.40;;;3.10;;
46723;SDS011;32463;48.298;11.620;2023-08-06T04:04:49;7.88;;;3.63;;
46723;SDS011;32463;48.298;11.620;2023-08-06T04:07:18;8.18;;;3.95;;
46723;SDS011;32463;48.298;11.620;2023-08-06T04:09:52;7.13;;;3.50;;
46723;SDS011;32463;48.298;11.620;2023-08-06T04:12:23;7.30;;;4.07;;
46723;SDS011;32463;48.298;11.620;2023-08-06T04:14:50;6.22;;;3.50;;
46723;SDS011;32463;48.298;11.620;2023-08-06T04:17:18;5.38;;;3.40;;
46723;SDS011;32463;48.298;11.620;2023-08-06T04:19:52;6.18;;;3.50;;
46723;SDS011;32463;48.298;11.620;2023-08-06T04:22:23;5.70;;;2.92;;
46723;SDS011;32463;48.298;11.620;2023-08-06T04:24:49;9.32;;;3.78;;
46723;SDS011;32463;48.298;11.620;2023-08-06T04:27:17;6.10;;;3.17;;
46723;SDS011;32463;48.298;11.620;2023-08-06T04:29:45;5.82;;;2.92;;
46723;SDS011;32463;48.298;11.620;2023-08-06T04:32:13;6.53;;;3.20;;
46723;SDS011;32463;48.298;11.620;2023-08-06T04:34:39;6.68;;;2.92;;
46723;SDS011;32463;48.298;11.620;2023-08-06T04:37:06;7.40;;;3.03;;
46723;SDS011;32463;48.298;11.620;2023-08-06T04:39:32;5.03;;;2.70;;
46723;SDS011;32463;48.298;11.620;2023-08-06T04:41:59;4.82;;;2.97;;
46723;SDS011;32463;48.298;11.620;2023-08-06T04:44:25;6.63;;;2.78;;
46723;SDS011;32463;48.298;11.620;2023-08-06T04:46:52;5.75;;;2.95;;
46723;SDS011;32463;48.298;11.620;2023-08-06T04:49:19;5.45;;;3.20;;
46723;SDS011;32463;48.298;11.620;2023-08-06T04:51:47;6.47;;;3.00;;
46723;SDS011;32463;48.298;11.620;2023-08-06T04:54:13;5.63;;;2.60;;
46723;SDS011;32463;48.298;11.620;2023-08-06T04:56:40;5.47;;;2.50;;
46723;SDS011;32463;48.298;11.620;2023-08-06T04:59:07;4.93;;;2.50;;
46723;SDS011;32463;48.298;11.620;2023-08-06T05:01:33;6.15;;;2.85;;
46723;SDS011;32463;48.298;11.620;2023-08-06T05:03:59;6.15;;;2.53;;
46723;SDS011;32463;48.298;11.620;2023-08-06T05:06:26;5.40;;;2.75;;
46723;SDS011;32463;48.298;11.620;2023-08-06T05:08:52;5.05;;;2.88;;
46723;SDS011;32463;48.298;11.620;2023-08-06T05:11:19;4.80;;;2.30;;
46723;SDS011;32463;48.298;11.620;2023-08-06T05:13:45;4.15;;;2.30;;
46723;SDS011;32463;48.298;11.620;2023-08-06T05:16:12;4.68;;;2.42;;
46723;SDS011;32463;48.298;11.620;2023-08-06T05:18:38;4.28;;;2.13;;
46723;SDS011;32463;48.298;11.620;2023-08-06T05:21:06;4.55;;;2.45;;
46723;SDS011;32463;48.298;11.620;2023-08-06T05:23:32;5.05;;;2.20;;
46723;SDS011;32463;48.298;11.620;2023-08-06T05:25:59;5.90;;;3.03;;
46723;SDS011;32463;48.298;11.620;2023-08-06T05:28:25;5.35;;;2.22;;
46723;SDS011;32463;48.298;11.620;2023-08-06T05:30:52;6.63;;;2.33;;
46723;SDS011;32463;48.298;11.620;2023-08-06T05:33:18;4.90;;;2.20;;
46723;SDS011;32463;48.298;11.620;2023-08-06T05:35:45;5.90;;;2.60;;
46723;SDS011;32463;48.298;11.620;2023-08-06T05:38:11;4.20;;;2.38;;
46723;SDS011;32463;48.298;11.620;2023-08-06T05:40:38;5.18;;;2.03;;
46723;SDS011;32463;48.298;11.620;2023-08-06T05:43:04;4.75;;;2.67;;
46723;SDS011;32463;48.298;11.620;2023-08-06T05:45:30;4.40;;;2.10;;
46723;SDS011;32463;48.298;11.620;2023-08-06T05:47:57;6.18;;;2.13;;
46723;SDS011;32463;48.298;11.620;2023-08-06T05:50:23;4.13;;;2.10;;
46723;SDS011;32463;48.298;11.620;2023-08-06T05:52:50;5.30;;;2.50;;
46723;SDS011;32463;48.298;11.620;2023-08-06T05:55:16;5.63;;;2.33;;
46723;SDS011;32463;48.298;11.620;2023-08-06T05:57:43;4.93;;;2.40;;
46723;SDS011;32463;48.298;11.620;2023-08-06T06:00:10;6.55;;;2.47;;
46723;SDS011;32463;48.298;11.620;2023-08-06T06:02:36;4.65;;;2.08;;
46723;SDS011;32463;48.298;11.620;2023-08-06T06:05:03;4.88;;;2.10;;
46723;SDS011;32463;48.298;11.620;2023-08-06T06:07:30;3.88;;;2.10;;
46723;SDS011;32463;48.298;11.620;2023-08-06T06:09:56;5.05;;;2.40;;
46723;SDS011;32463;48.298;11.620;2023-08-06T06:12:22;5.03;;;2.42;;
46723;SDS011;32463;48.298;11.620;2023-08-06T06:14:50;6.03;;;2.22;;
46723;SDS011;32463;48.298;11.620;2023-08-06T06:17:17;3.88;;;2.00;;
46723;SDS011;32463;48.298;11.620;2023-08-06T06:19:43;3.35;;;1.70;;
46723;SDS011;32463;48.298;11.620;2023-08-06T06:22:10;5.45;;;2.10;;
46723;SDS011;32463;48.298;11.620;2023-08-06T06:24:36;4.25;;;2.30;;
46723;SDS011;32463;48.298;11.620;2023-08-06T06:27:03;3.75;;;2.15;;
46723;SDS011;32463;48.298;11.620;2023-08-06T06:29:29;3.88;;;1.83;;
46723;SDS011;32463;48.298;11.620;2023-08-06T06:31:56;4.00;;;2.10;;
46723;SDS011;32463;48.298;11.620;2023-08-06T06:34:22;3.40;;;1.80;;
46723;SDS011;32463;48.298;11.620;2023-08-06T06:36:49;3.00;;;1.67;;
46723;SDS011;32463;48.298;11.620;2023-08-06T06:39:15;4.22;;;1.83;;
46723;SDS011;32463;48.298;11.620;2023-08-06T06:41:42;3.58;;;2.00;;
46723;SDS011;32463;48.298;11.620;2023-08-06T06:44:09;3.50;;;1.60;;
46723;SDS011;32463;48.298;11.620;2023-08-06T06:46:35;3.45;;;1.80;;
46723;SDS011;32463;48.298;11.620;2023-08-06T06:49:05;2.67;;;1.80;;
46723;SDS011;32463;48.298;11.620;2023-08-06T06:51:31;4.20;;;2.08;;
46723;SDS011;32463;48.298;11.620;2023-08-06T06:53:58;4.28;;;1.95;;
46723;SDS011;32463;48.298;11.620;2023-08-06T06:56:24;3.30;;;1.67;;
46723;SDS011;32463;48.298;11.620;2023-08-06T06:58:51;2.92;;;1.50;;
46723;SDS011;32463;48.298;11.620;2023-08-06T07:01:17;3.17;;;1.63;;
46723;SDS011;32463;48.298;11.620;2023-08-06T07:03:44;3.47;;;1.67;;
46723;SDS011;32463;48.298;11.620;2023-08-06T07:06:10;3.47;;;1.60;;
46723;SDS011;32463;48.298;11.620;2023-08-06T07:08:37;2.88;;;1.50;;
46723;SDS011;32463;48.298;11.620;2023-08-06T07:11:05;2.67;;;1.42;;
46723;SDS011;32463;48.298;11.620;2023-08-06T07:13:33;3.95;;;1.45;;
46723;SDS011;32463;48.298;11.620;2023-08-06T07:16:00;3.80;;;1.52;;
46723;SDS011;32463;48.298;11.620;2023-08-06T07:18:27;3.65;;;1.25;;
46723;SDS011;32463;48.298;11.620;2023-08-06T07:20:54;2.60;;;1.30;;
46723;SDS011;32463;48.298;11.620;2023-08-06T07:23:21;3.65;;;1.33;;
46723;SDS011;32463;48.298;11.620;2023-08-06T07:25:49;4.40;;;1.27;;
46723;SDS011;32463;48.298;11.620;2023-08-06T07:28:16;5.50;;;1.30;;
46723;SDS011;32463;48.298;11.620;2023-08-06T07:30:43;2.75;;;1.20;;
46723;SDS011;32463;48.298;11.620;2023-08-06T07:33:10;1.50;;;1.00;;
46723;SDS011;32463;48.298;11.620;2023-08-06T07:35:37;2.15;;;1.10;;
46723;SDS011;32463;48.298;11.620;2023-08-06T07:38:04;1.88;;;0.90;;
46723;SDS011;32463;48.298;11.620;2023-08-06T07:40:31;1.25;;;0.77;;
46723;SDS011;32463;48.298;11.620;2023-08-06T07:42:57;1.70;;;0.90;;
46723;SDS011;32463;48.298;11.620;2023-08-06T07:45:24;2.22;;;1.05;;
46723;SDS011;32463;48.298;11.620;2023-08-06T07:47:51;1.33;;;0.70;;
46723;SDS011;32463;48.298;11.620;2023-08-06T07:50:18;0.77;;;0.73;;
46723;SDS011;32463;48.298;11.620;2023-08-06T07:52:44;0.88;;;0.70;;
46723;SDS011;32463;48.298;11.620;2023-08-06T07:55:11;4.63;;;0.95;;
46723;SDS011;32463;48.298;11.620;2023-08-06T07:57:37;1.85;;;1.00;;
46723;SDS011;32463;48.298;11.620;2023-08-06T08:00:04;1.67;;;1.10;;
46723;SDS011;32463;48.298;11.620;2023-08-06T08:02:31;1.02;;;0.82;;
46723;SDS011;32463;48.298;11.620;2023-08-06T08:04:57;1.20;;;0.90;;
46723;SDS011;32463;48.298;11.620;2023-08-06T08:07:24;2.25;;;0.90;;
46723;SDS011;32463;48.298;11.620;2023-08-06T08:09:52;1.23;;;0.70;;
46723;SDS011;32463;48.298;11.620;2023-08-06T08:12:19;2.55;;;0.80;;
46723;SDS011;32463;48.298;11.620;2023-08-06T08:14:46;2.78;;;0.88;;
46723;SDS011;32463;48.298;11.620;2023-08-06T08:17:13;2.40;;;0.70;;
46723;SDS011;32463;48.298;11.620;2023-08-06T08:19:40;0.50;;;0.50;;
46723;SDS011;32463;48.298;11.620;2023-08-06T08:22:07;1.33;;;0.70;;
46723;SDS011;32463;48.298;11.620;2023-08-06T08:24:33;1.88;;;0.80;;
46723;SDS011;32463;48.298;11.620;2023-08-06T08:27:00;3.13;;;0.80;;
46723;SDS011;32463;48.298;11.620;2023-08-06T08:29:27;3.00;;;0.65;;
46723;SDS011;32463;48.298;11.620;2023-08-06T08:31:53;2.55;;;0.70;;
46723;SDS011;32463;48.298;11.620;2023-08-06T08:34:20;2.25;;;0.70;;
46723;SDS011;32463;48.298;11.620;2023-08-06T08:36:47;2.58;;;1.00;;
46723;SDS011;32463;48.298;11.620;2023-08-06T08:39:15;3.08;;;0.90;;
46723;SDS011;32463;48.298;11.620;2023-08-06T08:41:41;1.58;;;0.90;;
46723;SDS011;32463;48.298;11.620;2023-08-06T08:44:08;1.77;;;0.95;;
46723;SDS011;32463;48.298;11.620;2023-08-06T08:46:36;1.52;;;0.75;;
46723;SDS011;32463;48.298;11.620;2023-08-06T08:49:04;1.63;;;0.70;;
46723;SDS011;32463;48.298;11.620;2023-08-06T08:51:31;1.02;;;0.90;;
46723;SDS011;32463;48.298;11.620;2023-08-06T08:53:59;1.00;;;0.80;;
46723;SDS011;32463;48.298;11.620;2023-08-06T08:56:31;0.95;;;0.60;;
46723;SDS011;32463;48.298;11.620;2023-08-06T08:58:58;2.33;;;0.77;;
46723;SDS011;32463;48.298;11.620;2023-08-06T09:01:25;1.45;;;0.70;;
46723;SDS011;32463;48.298;11.620;2023-08-06T09:03:53;1.48;;;0.70;;
46723;SDS011;32463;48.298;11.620;2023-08-06T09:06:20;1.83;;;0.80;;
46723;SDS011;32463;48.298;11.620;2023-08-06T09:09:04;1.27;;;0.70;;
46723;SDS011;32463;48.298;11.620;2023-08-06T09:14:06;1.77;;;0.93;;
46723;SDS011;32463;48.298;11.620;2023-08-06T09:16:36;2.33;;;0.47;;
46723;SDS011;32463;48.298;11.620;2023-08-06T09:19:12;3.08;;;0.60;;
46723;SDS011;32463;48.298;11.620;2023-08-06T09:21:40;1.23;;;0.50;;
46723;SDS011;32463;48.298;11.620;2023-08-06T09:24:11;4.63;;;0.57;;
46723;SDS011;32463;48.298;11.620;2023-08-06T09:26:42;1.40;;;0.50;;
46723;SDS011;32463;48.298;11.620;2023-08-06T09:29:10;0.30;;;0.30;;
46723;SDS011;32463;48.298;11.620;2023-08-06T09:31:47;3.70;;;0.65;;
46723;SDS011;32463;48.298;11.620;2023-08-06T09:34:17;1.90;;;0.57;;
46723;SDS011;32463;48.298;11.620;2023-08-06T09:36:46;2.88;;;0.75;;
46723;SDS011;32463;48.298;11.620;2023-08-06T09:39:14;4.07;;;0.60;;
46723;SDS011;32463;48.298;11.620;2023-08-06T09:41:44;0.50;;;0.45;;
46723;SDS011;32463;48.298;11.620;2023-08-06T09:44:19;1.60;;;0.60;;
46723;SDS011;32463;48.298;11.620;2023-08-06T09:46:49;1.70;;;0.75;;
46723;SDS011;32463;48.298;11.620;2023-08-06T09:49:20;2.53;;;0.45;;
46723;SDS011;32463;48.298;11.620;2023-08-06T09:51:51;0.57;;;0.40;;
46723;SDS011;32463;48.298;11.620;2023-08-06T09:54:22;0.88;;;0.30;;
46723;SDS011;32463;48.298;11.620;2023-08-06T09:56:48;1.23;;;0.57;;
46723;SDS011;32463;48.298;11.620;2023-08-06T09:59:16;1.27;;;0.50;;
46723;SDS011;32463;48.298;11.620;2023-08-06T10:01:43;1.02;;;0.25;;
46723;SDS011;32463;48.298;11.620;2023-08-06T10:04:09;0.68;;;0.43;;
46723;SDS011;32463;48.298;11.620;2023-08-06T10:06:37;0.80;;;0.32;;
46723;SDS011;32463;48.298;11.620;2023-08-06T10:09:04;1.35;;;0.43;;
46723;SDS011;32463;48.298;11.620;2023-08-06T10:11:32;2.50;;;0.47;;
46723;SDS011;32463;48.298;11.620;2023-08-06T10:14:04;0.77;;;0.20;;
46723;SDS011;32463;48.298;11.620;2023-08-06T10:16:34;1.10;;;0.30;;
46723;SDS011;32463;48.298;11.620;2023-08-06T10:19:05;1.25;;;0.20;;
46723;SDS011;32463;48.298;11.620;2023-08-06T10:21:35;1.08;;;0.50;;
46723;SDS011;32463;48.298;11.620;2023-08-06T10:24:01;1.00;;;0.22;;
46723;SDS011;32463;48.298;11.620;2023-08-06T10:26:29;0.20;;;0.10;;
46723;SDS011;32463;48.298;11.620;2023-08-06T10:28:56;0.22;;;0.10;;
46723;SDS011;32463;48.298;11.620;2023-08-06T10:34:21;0.90;;;0.30;;
46723;SDS011;32463;48.298;11.620;2023-08-06T10:36:47;0.20;;;0.15;;
46723;SDS011;32463;48.298;11.620;2023-08-06T10:39:14;0.70;;;0.20;;
46723;SDS011;32463;48.298;11.620;2023-08-06T10:41:42;0.95;;;0.30;;
46723;SDS011;32463;48.298;11.620;2023-08-06T10:44:09;3.42;;;0.60;;
46723;SDS011;32463;48.298;11.620;2023-08-06T10:46:37;1.10;;;0.70;;
46723;SDS011;32463;48.298;11.620;2023-08-06T10:49:04;0.08;;;0.08;;
46723;SDS011;32463;48.298;11.620;2023-08-06T10:51:32;1.92;;;0.50;;
46723;SDS011;32463;48.298;11.620;2023-08-06T10:53:58;3.05;;;1.77;;
46723;SDS011;32463;48.298;11.620;2023-08-06T10:56:25;0.63;;;0.45;;
46723;SDS011;32463;48.298;11.620;2023-08-06T10:58:55;1.38;;;0.52;;
46723;SDS011;32463;48.298;11.620;2023-08-06T11:01:23;2.05;;;0.32;;
46723;SDS011;32463;48.298;11.620;2023-08-06T11:03:50;0.10;;;0.10;;
46723;SDS011;32463;48.298;11.620;2023-08-06T11:06:18;0.88;;;0.50;;
46723;SDS011;32463;48.298;11.620;2023-08-06T11:08:49;0.43;;;0.20;;
46723;SDS011;32463;48.298;11.620;2023-08-06T11:11:18;1.13;;;0.30;;
46723;SDS011;32463;48.298;11.620;2023-08-06T11:13:47;0.70;;;0.43;;
46723;SDS011;32463;48.298;11.620;2023-08-06T11:16:18;0.35;;;0.30;;
46723;SDS011;32463;48.298;11.620;2023-08-06T11:18:49;3.58;;;0.50;;
46723;SDS011;32463;48.298;11.620;2023-08-06T11:21:18;0.75;;;0.30;;
46723;SDS011;32463;48.298;11.620;2023-08-06T11:23:49;0.70;;;0.30;;
46723;SDS011;32463;48.298;11.620;2023-08-06T11:26:20;0.25;;;0.20;;
46723;SDS011;32463;48.298;11.620;2023-08-06T11:28:48;0.65;;;0.28;;
46723;SDS011;32463;48.298;11.620;2023-08-06T11:31:21;0.85;;;0.22;;
46723;SDS011;32463;48.298;11.620;2023-08-06T11:33:52;1.02;;;0.22;;
46723;SDS011;32463;48.298;11.620;2023-08-06T11:36:29;0.08;;;0.08;;
46723;SDS011;32463;48.298;11.620;2023-08-06T11:38:57;1.75;;;0.60;;
46723;SDS011;32463;48.298;11.620;2023-08-06T11:41:28;0.20;;;0.10;;
46723;SDS011;32463;48.298;11.620;2023-08-06T11:43:55;0.25;;;0.20;;
46723;SDS011;32463;48.298;11.620;2023-08-06T11:46:21;0.25;;;0.13;;
46723;SDS011;32463;48.298;11.620;2023-08-06T11:51:22;0.30;;;0.17;;
46723;SDS011;32463;48.298;11.620;2023-08-06T11:53:51;1.60;;;0.50;;
46723;SDS011;32463;48.298;11.620;2023-08-06T11:56:20;0.30;;;0.13;;
46723;SDS011;32463;48.298;11.620;2023-08-06T11:58:46;0.47;;;0.20;;
46723;SDS011;32463;48.298;11.620;2023-08-06T12:01:13;0.55;;;0.20;;
46723;SDS011;32463;48.298;11.620;2023-08-06T12:03:40;1.00;;;0.43;;
46723;SDS011;32463;48.298;11.620;2023-08-06T12:06:07;1.17;;;0.30;;
46723;SDS011;32463;48.298;11.620;2023-08-06T12:08:33;0.10;;;0.10;;
46723;SDS011;32463;48.298;11.620;2023-08-06T12:11:00;0.57;;;0.30;;
46723;SDS011;32463;48.298;11.620;2023-08-06T12:13:26;0.30;;;0.30;;
46723;SDS011;32463;48.298;11.620;2023-08-06T12:15:53;0.10;;;0.10;;
46723;SDS011;32463;48.298;11.620;2023-08-06T12:18:22;0.03;;;0.03;;
46723;SDS011;32463;48.298;11.620;2023-08-06T12:20:49;0.55;;;0.20;;
46723;SDS011;32463;48.298;11.620;2023-08-06T12:23:15;1.88;;;0.20;;
46723;SDS011;32463;48.298;11.620;2023-08-06T12:25:42;0.22;;;0.20;;
46723;SDS011;32463;48.298;11.620;2023-08-06T12:28:09;0.10;;;0.10;;
46723;SDS011;32463;48.298;11.620;2023-08-06T12:30:37;0.52;;;0.10;;
46723;SDS011;32463;48.298;11.620;2023-08-06T12:33:06;0.90;;;0.30;;
46723;SDS011;32463;48.298;11.620;2023-08-06T12:35:33;0.40;;;0.25;;
46723;SDS011;32463;48.298;11.620;2023-08-06T12:38:00;0.10;;;0.10;;
46723;SDS011;32463;48.298;11.620;2023-08-06T12:40:26;0.65;;;0.20;;
46723;SDS011;32463;48.298;11.620;2023-08-06T12:42:52;0.20;;;0.17;;
46723;SDS011;32463;48.298;11.620;2023-08-06T12:45:19;2.83;;;0.30;;
46723;SDS011;32463;48.298;11.620;2023-08-06T12:47:47;1.75;;;0.32;;
46723;SDS011;32463;48.298;11.620;2023-08-06T12:50:14;0.03;;;0.03;;
46723;SDS011;32463;48.298;11.620;2023-08-06T12:52:42;0.43;;;0.10;;
46723;SDS011;32463;48.298;11.620;2023-08-06T12:55:08;0.47;;;0.15;;
46723;SDS011;32463;48.298;11.620;2023-08-06T12:57:35;0.13;;;0.13;;
46723;SDS011;32463;48.298;11.620;2023-08-06T13:00:01;0.22;;;0.20;;
46723;SDS011;32463;48.298;11.620;2023-08-06T13:02:28;0.25;;;0.25;;
46723;SDS011;32463;48.298;11.620;2023-08-06T13:04:55;0.10;;;0.10;;
46723;SDS011;32463;48.298;11.620;2023-08-06T13:07:22;0.75;;;0.10;;
46723;SDS011;32463;48.298;11.620;2023-08-06T13:09:49;0.10;;;0.10;;
46723;SDS011;32463;48.298;11.620;2023-08-06T13:12:16;0.10;;;0.10;;
46723;SDS011;32463;48.298;11.620;2023-08-06T13:14:45;0.22;;;0.22;;
46723;SDS011;32463;48.298;11.620;2023-08-06T13:17:11;0.73;;;0.28;;
46723;SDS011;32463;48.298;11.620;2023-08-06T13:19:38;0.20;;;0.08;;
46723;SDS011;32463;48.298;11.620;2023-08-06T13:22:04;0.35;;;0.15;;
46723;SDS011;32463;48.298;11.620;2023-08-06T13:24:34;0.03;;;0.03;;
46723;SDS011;32463;48.298;11.620;2023-08-06T13:27:00;0.20;;;0.20;;
46723;SDS011;32463;48.298;11.620;2023-08-06T13:29:29;1.05;;;0.20;;
46723;SDS011;32463;48.298;11.620;2023-08-06T13:31:55;0.68;;;0.50;;
46723;SDS011;32463;48.298;11.620;2023-08-06T13:34:22;0.20;;;0.20;;
46723;SDS011;32463;48.298;11.620;2023-08-06T13:36:48;0.10;;;0.10;;
46723;SDS011;32463;48.298;11.620;2023-08-06T13:39:15;1.55;;;0.30;;
46723;SDS011;32463;48.298;11.620;2023-08-06T13:41:42;0.93;;;0.20;;
46723;SDS011;32463;48.298;11.620;2023-08-06T13:44:09;1.58;;;0.25;;
46723;SDS011;32463;48.298;11.620;2023-08-06T13:46:35;1.75;;;0.32;;
46723;SDS011;32463;48.298;11.620;2023-08-06T13:49:02;2.30;;;0.28;;
46723;SDS011;32463;48.298;11.620;2023-08-06T13:51:29;0.85;;;0.20;;
46723;SDS011;32463;48.298;11.620;2023-08-06T13:53:56;0.22;;;0.22;;
46723;SDS011;32463;48.298;11.620;2023-08-06T13:56:22;0.52;;;0.25;;
46723;SDS011;32463;48.298;11.620;2023-08-06T13:58:49;0.47;;;0.17;;
46723;SDS011;32463;48.298;11.620;2023-08-06T14:01:17;0.63;;;0.10;;
46723;SDS011;32463;48.298;11.620;2023-08-06T14:03:44;0.38;;;0.10;;
46723;SDS011;32463;48.298;11.620;2023-08-06T14:06:11;0.13;;;0.13;;
46723;SDS011;32463;48.298;11.620;2023-08-06T14:08:37;0.30;;;0.25;;
46723;SDS011;32463;48.298;11.620;2023-08-06T14:11:05;0.77;;;0.22;;
46723;SDS011;32463;48.298;11.620;2023-08-06T14:13:31;0.10;;;0.10;;
46723;SDS011;32463;48.298;11.620;2023-08-06T14:15:58;2.92;;;0.30;;
46723;SDS011;32463;48.298;11.620;2023-08-06T14:18:24;0.20;;;0.20;;
46723;SDS011;32463;48.298;11.620;2023-08-06T14:20:51;0.30;;;0.15;;
46723;SDS011;32463;48.298;11.620;2023-08-06T14:23:17;0.20;;;0.20;;
46723;SDS011;32463;48.298;11.620;2023-08-06T14:25:44;0.20;;;0.20;;
46723;SDS011;32463;48.298;11.620;2023-08-06T14:28:10;1.00;;;0.40;;
46723;SDS011;32463;48.298;11.620;2023-08-06T14:30:37;0.30;;;0.30;;
46723;SDS011;32463;48.298;11.620;2023-08-06T14:33:03;0.30;;;0.15;;
46723;SDS011;32463;48.298;11.620;2023-08-06T14:35:30;0.85;;;0.30;;
46723;SDS011;32463;48.298;11.620;2023-08-06T14:37:56;1.08;;;0.50;;
46723;SDS011;32463;48.298;11.620;2023-08-06T14:40:23;0.28;;;0.28;;
46723;SDS011;32463;48.298;11.620;2023-08-06T14:42:51;1.13;;;0.65;;
46723;SDS011;32463;48.298;11.620;2023-08-06T14:45:17;0.20;;;0.20;;